< Typhoon 198827 1988 Season Typhoon 198829 >
Typhoon 198828 (RUBY)
General InformationTrack Information on Google MapsDetailed Wind InformationList of All Images || Disaster Info.ResourceGoogle EarthGE AnimationAtom FeedGeoJSON
Detalied Best Track (Time Zone = UTC)
Year Month Day Hour Lat. Long. Pressure (hPa) Wind (kt) Class Image Chart
1988 10 20 18 10.0 137.5 1004 0 2 Image Chart
1988 10 21 00 10.0 137.0 1004 0 2 Image Chart
1988 10 21 06 10.0 136.5 1000 0 2 Image Chart
1988 10 21 12 10.0 135.5 996 40 3 Image Chart
1988 10 21 18 9.7 135.2 992 40 3 Image Chart
1988 10 22 00 9.3 135.0 990 45 3 Image Chart
1988 10 22 06 9.2 134.4 985 50 4 Image Chart
1988 10 22 12 9.3 133.8 980 55 4 Image Chart
1988 10 22 18 10.1 132.7 975 60 4 Image Chart
1988 10 23 00 10.6 131.0 970 65 5 Image Chart
1988 10 23 06 10.8 129.6 970 65 5 Image Chart
1988 10 23 12 11.4 128.2 965 70 5 Image Chart
1988 10 23 18 11.9 126.9 965 70 5 Image Chart
1988 10 24 00 12.5 125.8 965 70 5 Image Chart
1988 10 24 06 13.7 124.5 960 70 5 Image Chart
1988 10 24 12 14.5 123.3 950 75 5 Image Chart
1988 10 24 18 15.2 121.7 955 75 5 Image Chart
1988 10 25 00 16.0 120.0 960 75 5 Image Chart
1988 10 25 06 16.3 119.0 965 75 5 Image Chart
1988 10 25 12 16.4 118.0 970 75 5 Image Chart
1988 10 25 18 16.0 118.0 970 70 5 Image Chart
1988 10 26 00 16.5 117.5 970 65 5 Image Chart
1988 10 26 06 16.9 117.1 970 65 5 Image Chart
1988 10 26 12 17.2 116.5 975 60 4 Image Chart
1988 10 26 18 17.5 115.8 975 60 4 Image Chart
1988 10 27 00 17.6 114.5 980 55 4 Image Chart
1988 10 27 06 17.8 113.2 985 55 4 Image Chart
1988 10 27 12 18.1 112.4 985 50 4 Image Chart
1988 10 27 18 18.5 111.5 990 50 4 Image Chart
1988 10 28 00 18.8 110.8 992 50 4 Image Chart
1988 10 28 06 18.9 110.5 994 45 3 Image Chart
1988 10 28 12 18.8 110.1 996 40 3 Image Chart
1988 10 28 18 18.5 110.0 1004 0 2 Image Chart
1988 10 29 00 18.0 110.0 1008 0 2 Image Chart
1988 10 29 06 17.5 110.0 1008 0 2 Image Chart
1988 10 29 12 17.5 110.5 1008 0 2 Image Chart
Japan Meteorological Agency Best Track Data | Correction Date : 1992-10-21
< Typhoon 198827 1988 Season Typhoon 198829 >

Help